sensor_id;sensor_type;location;lat;lon;timestamp;temperature;humidity
10441;DHT22;5268;49.346;9.522;2024-02-23T04:09:31;7.00;99.90
10441;DHT22;5268;49.346;9.522;2024-02-23T04:14:33;7.00;99.90
10441;DHT22;5268;49.346;9.522;2024-02-23T04:19:36;7.00;99.90
10441;DHT22;5268;49.346;9.522;2024-02-23T04:24:40;7.00;99.90
10441;DHT22;5268;49.346;9.522;2024-02-23T04:29:42;6.90;99.90
10441;DHT22;5268;49.346;9.522;2024-02-23T04:34:44;6.90;99.90
10441;DHT22;5268;49.346;9.522;2024-02-23T04:39:48;6.90;99.90
10441;DHT22;5268;49.346;9.522;2024-02-23T04:44:50;6.90;99.90
10441;DHT22;5268;49.346;9.522;2024-02-23T04:49:55;6.80;99.90
10441;DHT22;5268;49.346;9.522;2024-02-23T04:54:58;6.80;99.90
10441;DHT22;5268;49.346;9.522;2024-02-23T05:00:00;6.80;99.90
10441;DHT22;5268;49.346;9.522;2024-02-23T05:05:02;6.80;99.90
10441;DHT22;5268;49.346;9.522;2024-02-23T05:10:08;6.80;99.90
10441;DHT22;5268;49.346;9.522;2024-02-23T05:15:10;6.80;99.90
10441;DHT22;5268;49.346;9.522;2024-02-23T05:20:14;6.80;99.90
10441;DHT22;5268;49.346;9.522;2024-02-23T05:25:17;6.80;99.90
10441;DHT22;5268;49.346;9.522;2024-02-23T05:30:19;6.80;99.90
10441;DHT22;5268;49.346;9.522;2024-02-23T05:35:21;6.70;99.90
10441;DHT22;5268;49.346;9.522;2024-02-23T05:40:24;6.70;99.90
10441;DHT22;5268;49.346;9.522;2024-02-23T05:45:26;6.70;99.90
10441;DHT22;5268;49.346;9.522;2024-02-23T05:50:29;6.70;99.90
10441;DHT22;5268;49.346;9.522;2024-02-23T05:55:33;6.60;99.90
10441;DHT22;5268;49.346;9.522;2024-02-23T06:00:35;6.60;99.90
10441;DHT22;5268;49.346;9.522;2024-02-23T06:05:37;6.60;99.90
10441;DHT22;5268;49.346;9.522;2024-02-23T06:10:40;6.70;99.90
10441;DHT22;5268;49.346;9.522;2024-02-23T06:15:43;6.60;99.90
10441;DHT22;5268;49.346;9.522;2024-02-23T06:20:45;6.50;99.90
10441;DHT22;5268;49.346;9.522;2024-02-23T06:25:49;6.50;99.90
10441;DHT22;5268;49.346;9.522;2024-02-23T06:30:51;6.60;99.90
10441;DHT22;5268;49.346;9.522;2024-02-23T06:35:53;6.50;99.90
10441;DHT22;5268;49.346;9.522;2024-02-23T06:40:56;6.60;99.90
10441;DHT22;5268;49.346;9.522;2024-02-23T06:45:58;6.60;99.90
10441;DHT22;5268;49.346;9.522;2024-02-23T06:51:00;6.60;99.90
10441;DHT22;5268;49.346;9.522;2024-02-23T06:56:04;6.50;99.90
10441;DHT22;5268;49.346;9.522;2024-02-23T07:01:06;6.50;99.90
10441;DHT22;5268;49.346;9.522;2024-02-23T07:06:12;6.60;99.90
10441;DHT22;5268;49.346;9.522;2024-02-23T07:11:15;6.60;99.90
10441;DHT22;5268;49.346;9.522;2024-02-23T07:16:17;6.60;99.90
10441;DHT22;5268;49.346;9.522;2024-02-23T07:21:19;6.60;99.90
10441;DHT22;5268;49.346;9.522;2024-02-23T07:26:22;6.70;99.90
10441;DHT22;5268;49.346;9.522;2024-02-23T07:31:24;6.70;99.90
10441;DHT22;5268;49.346;9.522;2024-02-23T07:36:27;6.70;99.90
10441;DHT22;5268;49.346;9.522;2024-02-23T07:41:30;6.80;99.90
10441;DHT22;5268;49.346;9.522;2024-02-23T07:46:32;6.70;99.90
10441;DHT22;5268;49.346;9.522;2024-02-23T07:51:34;6.70;99.90
10441;DHT22;5268;49.346;9.522;2024-02-23T07:56:38;6.70;99.90
10441;DHT22;5268;49.346;9.522;2024-02-23T08:01:40;6.70;99.90
10441;DHT22;5268;49.346;9.522;2024-02-23T08:06:42;6.70;99.90
10441;DHT22;5268;49.346;9.522;2024-02-23T08:11:45;6.80;99.90
10441;DHT22;5268;49.346;9.522;2024-02-23T08:16:48;6.80;99.90
10441;DHT22;5268;49.346;9.522;2024-02-23T08:21:50;6.90;99.90
10441;DHT22;5268;49.346;9.522;2024-02-23T08:26:54;7.00;99.90
10441;DHT22;5268;49.346;9.522;2024-02-23T08:31:56;7.10;99.90
10441;DHT22;5268;49.346;9.522;2024-02-23T08:36:58;7.20;99.90
10441;DHT22;5268;49.346;9.522;2024-02-23T08:42:01;7.20;99.90
10441;DHT22;5268;49.346;9.522;2024-02-23T08:47:04;7.20;99.90
10441;DHT22;5268;49.346;9.522;2024-02-23T08:52:06;7.20;99.90
10441;DHT22;5268;49.346;9.522;2024-02-23T08:57:09;7.40;99.90
10441;DHT22;5268;49.346;9.522;2024-02-23T09:02:11;7.50;99.90
10441;DHT22;5268;49.346;9.522;2024-02-23T09:07:13;7.50;99.90
10441;DHT22;5268;49.346;9.522;2024-02-23T09:12:17;7.50;99.90
10441;DHT22;5268;49.346;9.522;2024-02-23T09:17:19;7.50;99.90
10441;DHT22;5268;49.346;9.522;2024-02-23T09:22:21;7.50;99.90
10441;DHT22;5268;49.346;9.522;2024-02-23T09:27:25;7.20;99.90
10441;DHT22;5268;49.346;9.522;2024-02-23T09:32:51;7.30;99.90
10441;DHT22;5268;49.346;9.522;2024-02-23T09:37:53;7.50;99.90
10441;DHT22;5268;49.346;9.522;2024-02-23T09:42:56;7.60;99.90
10441;DHT22;5268;49.346;9.522;2024-02-23T09:48:00;7.50;99.90
10441;DHT22;5268;49.346;9.522;2024-02-23T09:53:05;7.50;99.90
10441;DHT22;5268;49.346;9.522;2024-02-23T09:58:09;7.50;99.90
10441;DHT22;5268;49.346;9.522;2024-02-23T10:03:15;7.40;99.90
10441;DHT22;5268;49.346;9.522;2024-02-23T10:08:18;7.60;99.90
10441;DHT22;5268;49.346;9.522;2024-02-23T10:13:20;7.60;99.90
10441;DHT22;5268;49.346;9.522;2024-02-23T10:18:23;7.80;99.90
10441;DHT22;5268;49.346;9.522;2024-02-23T10:23:25;7.50;99.90
10441;DHT22;5268;49.346;9.522;2024-02-23T10:28:27;7.80;99.90
10441;DHT22;5268;49.346;9.522;2024-02-23T10:33:31;8.00;99.90
10441;DHT22;5268;49.346;9.522;2024-02-23T10:38:35;8.10;99.90
10441;DHT22;5268;49.346;9.522;2024-02-23T10:43:44;8.20;99.90
10441;DHT22;5268;49.346;9.522;2024-02-23T10:48:48;7.80;99.90
10441;DHT22;5268;49.346;9.522;2024-02-23T10:53:52;7.90;99.90
10441;DHT22;5268;49.346;9.522;2024-02-23T10:58:55;7.70;99.90
10441;DHT22;5268;49.346;9.522;2024-02-23T11:03:58;7.70;99.90
10441;DHT22;5268;49.346;9.522;2024-02-23T11:09:06;7.70;99.90
10441;DHT22;5268;49.346;9.522;2024-02-23T11:14:10;7.80;99.90
10441;DHT22;5268;49.346;9.522;2024-02-23T11:19:16;7.90;99.90
10441;DHT22;5268;49.346;9.522;2024-02-23T11:24:18;8.20;99.90
10441;DHT22;5268;49.346;9.522;2024-02-23T11:29:20;8.20;99.90
10441;DHT22;5268;49.346;9.522;2024-02-23T11:34:24;8.30;99.90
10441;DHT22;5268;49.346;9.522;2024-02-23T11:39:29;8.30;99.90
10441;DHT22;5268;49.346;9.522;2024-02-23T11:44:31;8.20;99.90
10441;DHT22;5268;49.346;9.522;2024-02-23T11:49:35;8.10;99.90
10441;DHT22;5268;49.346;9.522;2024-02-23T11:54:37;8.30;99.90
10441;DHT22;5268;49.346;9.522;2024-02-23T11:59:40;8.40;99.90
10441;DHT22;5268;49.346;9.522;2024-02-23T12:04:47;8.40;99.90
10441;DHT22;5268;49.346;9.522;2024-02-23T12:09:49;8.30;99.90
10441;DHT22;5268;49.346;9.522;2024-02-23T12:14:52;8.20;99.90
10441;DHT22;5268;49.346;9.522;2024-02-23T12:25:54;8.30;99.90
10441;DHT22;5268;49.346;9.522;2024-02-23T12:31:00;8.50;99.90
10441;DHT22;5268;49.346;9.522;2024-02-23T12:36:03;8.70;99.90
10441;DHT22;5268;49.346;9.522;2024-02-23T12:41:07;8.80;99.90
10441;DHT22;5268;49.346;9.522;2024-02-23T12:46:09;8.90;99.90
10441;DHT22;5268;49.346;9.522;2024-02-23T12:51:14;9.10;99.90
10441;DHT22;5268;49.346;9.522;2024-02-23T12:56:18;9.20;99.90
10441;DHT22;5268;49.346;9.522;2024-02-23T13:01:21;9.20;99.90
10441;DHT22;5268;49.346;9.522;2024-02-23T13:06:23;9.10;99.90
10441;DHT22;5268;49.346;9.522;2024-02-23T13:11:27;8.90;99.90
10441;DHT22;5268;49.346;9.522;2024-02-23T13:16:29;8.60;99.90
10441;DHT22;5268;49.346;9.522;2024-02-23T13:21:31;8.60;99.90
10441;DHT22;5268;49.346;9.522;2024-02-23T13:26:35;8.50;99.90
10441;DHT22;5268;49.346;9.522;2024-02-23T13:31:37;8.50;99.90
10441;DHT22;5268;49.346;9.522;2024-02-23T13:36:40;8.40;99.90
10441;DHT22;5268;49.346;9.522;2024-02-23T13:41:44;8.40;99.90
10441;DHT22;5268;49.346;9.522;2024-02-23T13:46:46;8.50;99.90
10441;DHT22;5268;49.346;9.522;2024-02-23T13:51:48;8.60;99.90
10441;DHT22;5268;49.346;9.522;2024-02-23T13:56:51;8.80;99.90
10441;DHT22;5268;49.346;9.522;2024-02-23T14:01:53;8.80;99.90
10441;DHT22;5268;49.346;9.522;2024-02-23T14:06:55;8.70;99.90
10441;DHT22;5268;49.346;9.522;2024-02-23T14:11:59;8.60;99.90
10441;DHT22;5268;49.346;9.522;2024-02-23T14:17:01;8.60;99.90
10441;DHT22;5268;49.346;9.522;2024-02-23T14:22:03;8.60;99.90
10441;DHT22;5268;49.346;9.522;2024-02-23T14:27:07;8.90;99.90
10441;DHT22;5268;49.346;9.522;2024-02-23T14:32:09;8.90;99.90
10441;DHT22;5268;49.346;9.522;2024-02-23T14:37:11;9.10;99.90
10441;DHT22;5268;49.346;9.522;2024-02-23T14:42:15;9.30;99.90
10441;DHT22;5268;49.346;9.522;2024-02-23T14:47:17;9.30;99.90
10441;DHT22;5268;49.346;9.522;2024-02-23T14:52:19;9.40;99.90
10441;DHT22;5268;49.346;9.522;2024-02-23T14:57:22;9.40;99.90
10441;DHT22;5268;49.346;9.522;2024-02-23T15:02:25;9.30;99.90
10441;DHT22;5268;49.346;9.522;2024-02-23T15:07:27;9.40;99.90
10441;DHT22;5268;49.346;9.522;2024-02-23T15:12:30;9.40;99.90
10441;DHT22;5268;49.346;9.522;2024-02-23T15:17:33;9.30;99.90
10441;DHT22;5268;49.346;9.522;2024-02-23T15:22:35;9.20;99.90
10441;DHT22;5268;49.346;9.522;2024-02-23T15:27:44;9.00;99.90
10441;DHT22;5268;49.346;9.522;2024-02-23T15:32:46;8.90;99.90
10441;DHT22;5268;49.346;9.522;2024-02-23T15:37:48;9.00;99.90
10441;DHT22;5268;49.346;9.522;2024-02-23T15:42:52;9.00;99.90
10441;DHT22;5268;49.346;9.522;2024-02-23T15:47:54;9.00;99.90
10441;DHT22;5268;49.346;9.522;2024-02-23T15:52:56;9.00;99.90
10441;DHT22;5268;49.346;9.522;2024-02-23T15:57:59;8.90;99.90
10441;DHT22;5268;49.346;9.522;2024-02-23T16:03:01;8.90;99.90
10441;DHT22;5268;49.346;9.522;2024-02-23T16:08:04;8.90;99.90
10441;DHT22;5268;49.346;9.522;2024-02-23T16:13:08;8.80;99.90
10441;DHT22;5268;49.346;9.522;2024-02-23T16:18:10;8.70;99.90
10441;DHT22;5268;49.346;9.522;2024-02-23T16:23:12;8.70;99.90
10441;DHT22;5268;49.346;9.522;2024-02-23T16:28:16;8.70;99.90
10441;DHT22;5268;49.346;9.522;2024-02-23T16:33:18;8.70;99.90
10441;DHT22;5268;49.346;9.522;2024-02-23T16:38:19;8.60;99.90
10441;DHT22;5268;49.346;9.522;2024-02-23T16:43:23;8.60;99.90
10441;DHT22;5268;49.346;9.522;2024-02-23T16:48:25;8.60;99.90
10441;DHT22;5268;49.346;9.522;2024-02-23T16:53:27;8.50;99.90
10441;DHT22;5268;49.346;9.522;2024-02-23T16:58:30;8.40;99.90
10441;DHT22;5268;49.346;9.522;2024-02-23T17:03:33;8.40;99.90
10441;DHT22;5268;49.346;9.522;2024-02-23T17:08:35;8.30;99.90
10441;DHT22;5268;49.346;9.522;2024-02-23T17:13:42;8.20;99.90
10441;DHT22;5268;49.346;9.522;2024-02-23T17:18:44;8.20;99.90
10441;DHT22;5268;49.346;9.522;2024-02-23T17:23:46;8.20;99.90
10441;DHT22;5268;49.346;9.522;2024-02-23T17:28:50;8.10;99.90
10441;DHT22;5268;49.346;9.522;2024-02-23T17:33:52;8.00;99.90
10441;DHT22;5268;49.346;9.522;2024-02-23T17:38:54;7.90;99.90
10441;DHT22;5268;49.346;9.522;2024-02-23T17:43:57;7.90;99.90
10441;DHT22;5268;49.346;9.522;2024-02-23T17:48:59;7.90;99.90
10441;DHT22;5268;49.346;9.522;2024-02-23T17:54:01;7.80;99.90
10441;DHT22;5268;49.346;9.522;2024-02-23T17:59:05;7.70;99.90
10441;DHT22;5268;49.346;9.522;2024-02-23T18:04:07;7.70;99.90
10441;DHT22;5268;49.346;9.522;2024-02-23T18:09:09;7.70;99.90
10441;DHT22;5268;49.346;9.522;2024-02-23T18:14:14;7.70;99.90
10441;DHT22;5268;49.346;9.522;2024-02-23T18:19:16;7.60;99.90
10441;DHT22;5268;49.346;9.522;2024-02-23T18:24:19;7.60;99.90
10441;DHT22;5268;49.346;9.522;2024-02-23T18:29:23;7.50;99.90
10441;DHT22;5268;49.346;9.522;2024-02-23T18:34:24;7.50;99.90
10441;DHT22;5268;49.346;9.522;2024-02-23T18:39:26;7.50;99.90
10441;DHT22;5268;49.346;9.522;2024-02-23T18:44:30;7.50;99.90
10441;DHT22;5268;49.346;9.522;2024-02-23T18:49:35;7.40;99.90
10441;DHT22;5268;49.346;9.522;2024-02-23T18:54:37;7.40;99.90
10441;DHT22;5268;49.346;9.522;2024-02-23T18:59:40;7.50;99.90
10441;DHT22;5268;49.346;9.522;2024-02-23T19:04:42;7.40;99.90
10441;DHT22;5268;49.346;9.522;2024-02-23T19:09:44;7.40;99.90
10441;DHT22;5268;49.346;9.522;2024-02-23T19:14:48;7.40;99.90
10441;DHT22;5268;49.346;9.522;2024-02-23T19:19:50;7.40;99.90
10441;DHT22;5268;49.346;9.522;2024-02-23T19:24:52;7.40;99.90
10441;DHT22;5268;49.346;9.522;2024-02-23T19:29:55;7.40;99.90
10441;DHT22;5268;49.346;9.522;2024-02-23T19:34:59;7.40;99.90
10441;DHT22;5268;49.346;9.522;2024-02-23T19:40:01;7.40;99.90
10441;DHT22;5268;49.346;9.522;2024-02-23T19:45:06;7.30;99.90
10441;DHT22;5268;49.346;9.522;2024-02-23T19:50:08;7.30;99.90
10441;DHT22;5268;49.346;9.522;2024-02-23T19:55:11;7.30;99.90
10441;DHT22;5268;49.346;9.522;2024-02-23T20:00:15;7.30;99.90
10441;DHT22;5268;49.346;9.522;2024-02-23T20:05:18;7.20;99.90
10441;DHT22;5268;49.346;9.522;2024-02-23T20:10:20;7.10;99.90
10441;DHT22;5268;49.346;9.522;2024-02-23T20:15:24;7.00;99.90
10441;DHT22;5268;49.346;9.522;2024-02-23T20:20:26;6.90;99.90
10441;DHT22;5268;49.346;9.522;2024-02-23T20:25:28;6.80;99.90
10441;DHT22;5268;49.346;9.522;2024-02-23T20:30:31;6.70;99.90
10441;DHT22;5268;49.346;9.522;2024-02-23T20:35:33;6.60;99.90
10441;DHT22;5268;49.346;9.522;2024-02-23T20:40:36;6.60;99.90
10441;DHT22;5268;49.346;9.522;2024-02-23T20:45:39;6.50;99.90
10441;DHT22;5268;49.346;9.522;2024-02-23T20:50:42;6.50;99.90
10441;DHT22;5268;49.346;9.522;2024-02-23T20:55:43;6.50;99.90
10441;DHT22;5268;49.346;9.522;2024-02-23T21:00:47;6.40;99.90
10441;DHT22;5268;49.346;9.522;2024-02-23T21:05:49;6.30;99.90
10441;DHT22;5268;49.346;9.522;2024-02-23T21:10:51;6.20;99.90
10441;DHT22;5268;49.346;9.522;2024-02-23T21:15:54;6.20;99.90
10441;DHT22;5268;49.346;9.522;2024-02-23T21:20:58;6.20;99.90
10441;DHT22;5268;49.346;9.522;2024-02-23T21:26:04;6.10;99.90
10441;DHT22;5268;49.346;9.522;2024-02-23T21:31:08;6.00;99.90
10441;DHT22;5268;49.346;9.522;2024-02-23T21:36:09;5.90;99.90
10441;DHT22;5268;49.346;9.522;2024-02-23T21:41:12;5.80;99.90
10441;DHT22;5268;49.346;9.522;2024-02-23T21:46:15;5.60;99.90
10441;DHT22;5268;49.346;9.522;2024-02-23T21:51:17;5.50;99.90
10441;DHT22;5268;49.346;9.522;2024-02-23T21:56:19;5.40;99.90
10441;DHT22;5268;49.346;9.522;2024-02-23T22:01:22;5.30;99.90
10441;DHT22;5268;49.346;9.522;2024-02-23T22:06:24;5.10;99.90
10441;DHT22;5268;49.346;9.522;2024-02-23T22:11:26;4.90;99.90
10441;DHT22;5268;49.346;9.522;2024-02-23T22:16:29;4.90;99.90
10441;DHT22;5268;49.346;9.522;2024-02-23T22:21:31;4.80;99.90
10441;DHT22;5268;49.346;9.522;2024-02-23T22:26:33;4.80;99.90
10441;DHT22;5268;49.346;9.522;2024-02-23T22:31:45;4.70;99.90
10441;DHT22;5268;49.346;9.522;2024-02-23T22:36:47;4.70;99.90
10441;DHT22;5268;49.346;9.522;2024-02-23T22:41:49;4.60;99.90
10441;DHT22;5268;49.346;9.522;2024-02-23T22:46:53;4.50;99.90
10441;DHT22;5268;49.346;9.522;2024-02-23T22:51:56;4.50;99.90
